createdAt,value
2017-09-30T00:01:54.876Z,82.20
2017-09-30T00:07:23.005Z,82.40
2017-09-30T00:12:51.917Z,82.40
2017-09-30T00:18:20.088Z,82.40
2017-09-30T00:23:48.275Z,82.40
2017-09-30T00:29:16.409Z,82.50
2017-09-30T00:34:44.569Z,82.50
2017-09-30T00:40:12.715Z,82.50
2017-09-30T00:45:40.862Z,82.60
2017-09-30T00:51:09.002Z,83.30
2017-09-30T00:56:37.168Z,82.60
2017-09-30T01:02:05.325Z,82.70
2017-09-30T01:07:33.470Z,82.80
2017-09-30T01:13:01.619Z,82.80
2017-09-30T01:18:29.776Z,82.80
2017-09-30T01:23:58.681Z,82.90
2017-09-30T01:29:26.809Z,82.90
2017-09-30T01:34:55.721Z,83.00
2017-09-30T01:40:23.877Z,82.90
2017-09-30T01:45:52.018Z,82.90
2017-09-30T01:51:20.170Z,82.90
2017-09-30T01:56:48.340Z,83.10
2017-09-30T02:02:16.486Z,83.10
2017-09-30T02:07:44.637Z,83.10
2017-09-30T02:13:13.540Z,83.00
2017-09-30T02:18:41.695Z,83.00
2017-09-30T02:24:09.846Z,83.10
2017-09-30T02:29:38.008Z,83.20
2017-09-30T02:35:06.155Z,83.20
2017-09-30T02:40:34.331Z,83.30
2017-09-30T02:46:02.497Z,83.40
2017-09-30T02:51:30.651Z,84.10
2017-09-30T02:56:58.786Z,83.50
2017-09-30T03:02:26.942Z,83.40
2017-09-30T03:07:55.096Z,83.40
2017-09-30T03:13:23.998Z,83.50
2017-09-30T03:18:52.143Z,83.40
2017-09-30T03:24:20.296Z,83.40
2017-09-30T03:29:48.442Z,83.40
2017-09-30T03:35:16.619Z,83.40
2017-09-30T03:40:44.769Z,83.40
2017-09-30T03:46:12.923Z,83.50
2017-09-30T03:51:41.066Z,83.50
2017-09-30T03:57:09.992Z,83.50
2017-09-30T04:02:38.152Z,83.50
2017-09-30T04:08:06.279Z,83.50
2017-09-30T04:13:34.432Z,83.60
2017-09-30T04:19:02.575Z,83.60
2017-09-30T04:24:31.500Z,83.70
2017-09-30T04:29:59.648Z,83.70
2017-09-30T04:35:27.804Z,83.70
2017-09-30T04:40:55.969Z,83.60
2017-09-30T04:46:24.124Z,83.60
2017-09-30T04:51:52.275Z,83.60
2017-09-30T04:57:20.421Z,83.60
2017-09-30T05:02:49.325Z,83.60
2017-09-30T05:08:17.479Z,83.70
2017-09-30T05:13:45.642Z,83.80
2017-09-30T05:19:13.790Z,83.70
2017-09-30T05:24:41.934Z,83.70
2017-09-30T05:30:10.211Z,83.70
2017-09-30T05:35:38.364Z,83.70
2017-09-30T05:41:06.516Z,83.60
2017-09-30T05:46:34.656Z,83.60
2017-09-30T05:52:02.813Z,83.60
2017-09-30T05:57:31.183Z,83.50
2017-09-30T06:02:59.352Z,83.40
2017-09-30T06:08:27.507Z,83.50
2017-09-30T06:13:55.648Z,83.50
2017-09-30T06:19:23.820Z,83.50
2017-09-30T06:24:51.968Z,83.40
2017-09-30T06:30:20.968Z,83.40
2017-09-30T06:35:49.104Z,83.50
2017-09-30T06:41:17.254Z,83.40
2017-09-30T06:46:45.408Z,83.40
2017-09-30T06:52:14.321Z,83.30
2017-09-30T06:57:42.466Z,83.30
2017-09-30T07:03:10.622Z,83.30
2017-09-30T07:08:38.781Z,83.40
2017-09-30T07:14:06.924Z,83.40
2017-09-30T07:19:35.066Z,83.30
2017-09-30T07:25:03.977Z,83.00
2017-09-30T07:30:32.127Z,83.00
2017-09-30T07:36:00.267Z,82.90
2017-09-30T07:41:28.419Z,82.60
2017-09-30T07:46:56.566Z,82.60
2017-09-30T07:52:25.488Z,82.30
2017-09-30T07:57:53.656Z,82.30
2017-09-30T08:03:21.802Z,82.10
2017-09-30T08:08:50.315Z,81.90
2017-09-30T08:14:18.447Z,81.70
2017-09-30T08:19:46.599Z,82.00
2017-09-30T08:25:14.756Z,80.90
2017-09-30T08:30:42.893Z,80.70
2017-09-30T08:36:11.035Z,80.80
2017-09-30T08:41:39.197Z,80.70
2017-09-30T08:47:07.388Z,80.10
2017-09-30T08:52:35.539Z,80.90
2017-09-30T08:58:03.698Z,80.00
2017-09-30T09:03:31.840Z,79.80
2017-09-30T09:09:00.005Z,79.60
2017-09-30T09:14:28.150Z,79.10
2017-09-30T09:19:56.298Z,79.20
2017-09-30T09:25:24.450Z,79.30
2017-09-30T09:30:52.704Z,78.70
2017-09-30T09:36:20.854Z,78.50
2017-09-30T09:41:49.769Z,78.10
2017-09-30T09:47:17.937Z,78.00
2017-09-30T09:52:46.081Z,77.90
2017-09-30T09:58:14.239Z,77.70
2017-09-30T10:03:42.386Z,77.20
2017-09-30T10:09:10.538Z,76.40
2017-09-30T10:14:38.689Z,76.10
2017-09-30T10:20:06.827Z,75.90
2017-09-30T10:25:35.743Z,75.70
2017-09-30T10:31:03.896Z,75.50
2017-09-30T10:36:32.053Z,74.80
2017-09-30T10:42:00.190Z,74.60
2017-09-30T10:47:28.341Z,73.60
2017-09-30T10:52:57.269Z,73.40
2017-09-30T10:58:25.416Z,73.40
2017-09-30T11:03:53.581Z,72.70
2017-09-30T11:09:21.733Z,72.00
2017-09-30T11:14:49.873Z,70.90
2017-09-30T11:20:18.057Z,70.50
2017-09-30T11:25:46.450Z,69.90
2017-09-30T11:31:14.605Z,69.00
2017-09-30T11:36:42.755Z,67.30
2017-09-30T11:42:10.899Z,67.80
2017-09-30T11:47:39.034Z,65.60
2017-09-30T11:53:07.185Z,65.70
2017-09-30T11:58:35.326Z,64.10
2017-09-30T12:04:03.464Z,64.10
2017-09-30T12:09:31.655Z,62.70
2017-09-30T12:14:59.852Z,62.90
2017-09-30T12:20:27.995Z,62.90
2017-09-30T12:25:56.173Z,62.20
2017-09-30T12:31:24.336Z,62.40
2017-09-30T12:36:52.502Z,62.10
2017-09-30T12:42:20.636Z,61.40
2017-09-30T12:47:48.777Z,61.80
2017-09-30T12:53:16.938Z,62.30
2017-09-30T12:58:45.096Z,61.70
2017-09-30T13:04:13.257Z,61.80
2017-09-30T13:09:41.432Z,62.00
2017-09-30T13:15:09.576Z,62.20
2017-09-30T13:20:37.754Z,62.50
2017-09-30T13:26:05.899Z,62.50
2017-09-30T13:31:34.062Z,62.70
2017-09-30T13:37:02.224Z,62.50
2017-09-30T13:42:30.366Z,63.00
2017-09-30T13:47:58.516Z,62.00
2017-09-30T13:53:26.680Z,62.10
2017-09-30T13:58:54.810Z,62.40
2017-09-30T14:04:23.726Z,60.30
2017-09-30T14:09:51.893Z,60.30
2017-09-30T14:15:20.268Z,60.60
2017-09-30T14:20:48.415Z,61.50
2017-09-30T14:26:16.557Z,61.50
2017-09-30T14:31:44.694Z,62.10
2017-09-30T14:37:12.865Z,62.60
2017-09-30T14:42:41.052Z,62.70
2017-09-30T14:48:09.217Z,63.20
2017-09-30T14:53:37.368Z,63.20
2017-09-30T14:59:05.523Z,64.50
2017-09-30T15:04:33.669Z,63.70
2017-09-30T15:10:01.808Z,64.50
2017-09-30T15:15:29.953Z,64.80
2017-09-30T15:20:58.117Z,65.00
2017-09-30T15:26:26.319Z,65.10
2017-09-30T15:31:54.476Z,66.00
2017-09-30T15:37:22.631Z,65.90
2017-09-30T15:42:51.572Z,66.90
2017-09-30T15:48:19.858Z,66.70
2017-09-30T15:53:48.007Z,67.30
2017-09-30T15:59:16.213Z,66.70
2017-09-30T16:04:44.475Z,66.90
2017-09-30T16:10:12.656Z,67.30
2017-09-30T16:15:40.839Z,67.40
2017-09-30T16:21:08.987Z,67.80
2017-09-30T16:26:37.138Z,68.40
2017-09-30T16:32:05.282Z,69.40
2017-09-30T16:37:33.603Z,68.90
2017-09-30T16:43:02.544Z,70.40
2017-09-30T16:48:30.694Z,70.40
2017-09-30T16:53:58.864Z,70.50
2017-09-30T16:59:27.026Z,70.80
2017-09-30T17:04:55.178Z,71.40
2017-09-30T17:10:23.361Z,72.10
2017-09-30T17:15:52.283Z,72.70
2017-09-30T17:21:20.430Z,72.30
2017-09-30T17:26:48.639Z,72.50
2017-09-30T17:32:16.795Z,72.90
2017-09-30T17:37:44.948Z,73.40
2017-09-30T17:43:13.099Z,73.20
2017-09-30T17:48:41.268Z,73.30
2017-09-30T17:54:09.456Z,73.60
2017-09-30T17:59:38.367Z,74.60
2017-09-30T18:05:06.511Z,75.30
2017-09-30T18:10:34.659Z,75.20
2017-09-30T18:16:03.566Z,74.70
2017-09-30T18:21:31.716Z,74.70
2017-09-30T18:26:59.880Z,75.00
2017-09-30T18:32:28.036Z,75.10
2017-09-30T18:37:57.313Z,75.30
2017-09-30T18:43:25.472Z,75.70
2017-09-30T18:48:53.636Z,75.90
2017-09-30T18:54:21.780Z,76.10
2017-09-30T18:59:50.048Z,76.30
2017-09-30T19:05:18.237Z,76.50
2017-09-30T19:10:46.419Z,76.70
2017-09-30T19:16:14.563Z,76.80
2017-09-30T19:21:44.392Z,77.30
2017-09-30T19:27:13.313Z,77.30
2017-09-30T19:32:41.484Z,77.30
2017-09-30T19:38:09.678Z,77.20
2017-09-30T19:43:38.629Z,77.60
2017-09-30T19:49:06.793Z,77.60
2017-09-30T19:54:34.943Z,77.60
2017-09-30T20:00:03.110Z,77.70
2017-09-30T20:05:31.343Z,77.70
2017-09-30T20:10:59.484Z,77.90
2017-09-30T20:16:27.656Z,78.00
2017-09-30T20:21:55.806Z,78.00
2017-09-30T20:27:23.992Z,78.20
2017-09-30T20:32:52.144Z,78.30
2017-09-30T20:38:20.300Z,78.40
2017-09-30T20:43:48.505Z,78.50
2017-09-30T20:49:16.647Z,78.60
2017-09-30T20:54:45.555Z,79.70
2017-09-30T21:00:13.699Z,79.20
2017-09-30T21:05:41.858Z,79.20
2017-09-30T21:11:10.006Z,79.50
2017-09-30T21:16:38.936Z,79.00
2017-09-30T21:22:07.314Z,78.90
2017-09-30T21:27:35.472Z,78.60
2017-09-30T21:33:03.620Z,78.10
2017-09-30T21:38:31.783Z,77.90
2017-09-30T21:43:59.922Z,77.80
2017-09-30T21:49:28.063Z,78.00
2017-09-30T21:54:56.988Z,78.60
2017-09-30T22:00:25.149Z,78.60
2017-09-30T22:05:53.291Z,78.70
2017-09-30T22:11:21.443Z,79.00
2017-09-30T22:16:49.600Z,79.20
2017-09-30T22:22:17.753Z,79.20
2017-09-30T22:27:45.908Z,79.60
2017-09-30T22:33:14.052Z,79.90
2017-09-30T22:38:42.184Z,80.40
2017-09-30T22:44:10.328Z,80.40
2017-09-30T22:49:39.236Z,80.70
2017-09-30T22:55:07.378Z,80.70
2017-09-30T23:00:35.534Z,80.80
2017-09-30T23:06:03.692Z,81.00
2017-09-30T23:11:31.846Z,81.20
2017-09-30T23:17:00.772Z,81.30
2017-09-30T23:22:28.954Z,81.30
2017-09-30T23:27:57.096Z,81.40
2017-09-30T23:33:25.243Z,81.60
2017-09-30T23:38:53.387Z,81.70
2017-09-30T23:44:21.545Z,81.90
2017-09-30T23:49:49.694Z,82.10
2017-09-30T23:55:17.850Z,82.00
